Time;durP1;ratioP1;P1;durP2;ratioP2;P2;SDS_P1;SDS_P2;PMS_P1;PMS_P2;Temp;Humidity;BMP_temperature;BMP_pressure;BME280_temperature;BME280_humidity;BME280_pressure;Samples;Min_cycle;Max_cycle;Signal;HPM_P1;HPM_P2
2022/04/20 00:01:26;;;;;;;;;;;;;;;20.98;39.25;101407.88;4952138;28;19934;-82
2022/04/20 00:03:52;;;;;;;;;;;;;;;20.96;39.00;101406.25;4952331;28;20342;-82
2022/04/20 00:06:17;;;;;;;;;;;;;;;20.95;39.09;101401.88;4952476;29;19927;-82
2022/04/20 00:08:42;;;;;;;;;;;;;;;20.96;39.04;101402.69;4942859;28;19937;-82
2022/04/20 00:11:08;;;;;;;;;;;;;;;20.95;38.98;101401.06;4949707;29;20324;-81
2022/04/20 00:13:33;;;;;;;;;;;;;;;20.94;39.16;101391.16;4958022;28;19925;-82
2022/04/20 00:15:59;;;;;;;;;;;;;;;20.94;38.97;101396.66;4953143;29;20544;-82
2022/04/20 00:18:24;;;;;;;;;;;;;;;20.94;38.85;101394.75;4952359;29;19945;-82
2022/04/20 00:20:49;;;;;;;;;;;;;;;20.94;39.22;101396.66;4953617;29;19927;-81
2022/04/20 00:23:14;;;;;;;;;;;;;;;20.93;39.07;101393.09;4952073;28;19989;-82
2022/04/20 00:25:40;;;;;;;;;;;;;;;20.93;38.92;101403.28;4967992;28;20021;-82
2022/04/20 00:28:05;;;;;;;;;;;;;;;20.92;38.98;101399.72;4953839;28;19926;-82
2022/04/20 00:30:30;;;;;;;;;;;;;;;20.91;38.91;101389.81;4934612;29;19933;-82
2022/04/20 00:32:56;;;;;;;;;;;;;;;20.91;39.03;101394.50;4945112;29;19949;-82
2022/04/20 00:35:21;;;;;;;;;;;;;;;20.91;39.18;101398.06;4952048;28;19922;-82
2022/04/20 00:37:47;;;;;;;;;;;;;;;20.90;38.89;101396.44;4954480;28;19922;-82
2022/04/20 00:40:13;;;;;;;;;;;;;;;20.90;38.92;101392.88;4946488;29;19981;-82
2022/04/20 00:42:39;;;;;;;;;;;;;;;20.89;38.97;101388.50;4954167;28;19918;-82
2022/04/20 00:45:05;;;;;;;;;;;;;;;20.89;39.24;101389.34;4967940;28;19926;-82
2022/04/20 00:47:32;;;;;;;;;;;;;;;20.89;38.78;101393.97;4941104;28;19927;-82
2022/04/20 00:49:58;;;;;;;;;;;;;;;20.89;38.96;101397.56;4968463;28;19923;-82
2022/04/20 00:52:23;;;;;;;;;;;;;;;20.88;38.99;101403.34;4953917;28;19950;-82
2022/04/20 00:54:48;;;;;;;;;;;;;;;20.88;38.82;101403.34;4954239;28;19923;-82
2022/04/20 00:57:15;;;;;;;;;;;;;;;20.87;39.04;101399.78;4949041;29;20404;-82
2022/04/20 00:59:41;;;;;;;;;;;;;;;20.87;38.85;101401.72;4955340;28;19919;-79
2022/04/20 01:02:06;;;;;;;;;;;;;;;20.87;38.87;101409.97;4940153;29;19926;-82
2022/04/20 01:04:32;;;;;;;;;;;;;;;20.86;39.12;101397.34;4951894;28;20291;-82
2022/04/20 01:07:08;;;;;;;;;;;;;;;20.85;38.88;101399.25;4960116;28;20320;-82
2022/04/20 01:09:33;;;;;;;;;;;;;;;20.85;38.93;101409.44;4948635;29;19918;-82
2022/04/20 01:11:59;;;;;;;;;;;;;;;20.85;39.00;101406.69;4951663;29;19933;-82
2022/04/20 01:14:25;;;;;;;;;;;;;;;20.84;39.15;101405.88;4950891;29;19923;-82
2022/04/20 01:16:50;;;;;;;;;;;;;;;20.83;38.87;101401.47;4948824;29;19923;-82
2022/04/20 01:19:15;;;;;;;;;;;;;;;20.82;39.12;101396.31;4953197;29;19919;-83
2022/04/20 01:21:40;;;;;;;;;;;;;;;20.83;38.92;101395.19;4965789;28;19922;-82
2022/04/20 01:24:06;;;;;;;;;;;;;;;20.82;38.93;101399.88;4947862;29;19926;-81
2022/04/20 01:26:32;;;;;;;;;;;;;;;20.81;38.75;101400.97;4948885;29;20256;-82
2022/04/20 01:28:58;;;;;;;;;;;;;;;20.81;39.04;101406.44;4960413;28;19970;-82
2022/04/20 01:31:23;;;;;;;;;;;;;;;20.81;38.72;101411.94;4948767;29;19962;-82
2022/04/20 01:33:49;;;;;;;;;;;;;;;20.80;39.04;101409.50;4936974;29;20067;-82
2022/04/20 01:36:14;;;;;;;;;;;;;;;20.79;39.03;101405.94;4953296;28;20379;-82
2022/04/20 01:38:39;;;;;;;;;;;;;;;20.80;38.83;101409.50;4955058;29;20412;-82
2022/04/20 01:41:05;;;;;;;;;;;;;;;20.79;39.01;101408.69;4971411;28;19930;-82
2022/04/20 01:43:30;;;;;;;;;;;;;;;20.79;38.92;101414.19;4956397;29;19981;-82
2022/04/20 01:45:55;;;;;;;;;;;;;;;20.78;38.91;101409.78;4956553;28;20431;-82
2022/04/20 01:48:21;;;;;;;;;;;;;;;20.78;38.86;101408.97;4970544;28;19923;-83
2022/04/20 01:53:30;;;;;;;;;;;;;;;20.75;38.70;101404.91;4945070;29;19934;-82
2022/04/20 01:55:55;;;;;;;;;;;;;;;20.75;38.85;101402.97;4948451;29;19919;-81
2022/04/20 01:58:21;;;;;;;;;;;;;;;20.76;38.91;101409.25;4968030;28;19937;-81
2022/04/20 02:00:46;;;;;;;;;;;;;;;20.74;38.95;101406.03;4941137;29;19926;-82
2022/04/20 02:03:11;;;;;;;;;;;;;;;20.74;38.83;101401.34;4937635;29;20319;-82
2022/04/20 02:05:37;;;;;;;;;;;;;;;20.74;38.78;101404.09;4953597;29;19927;-82
2022/04/20 02:08:02;;;;;;;;;;;;;;;20.74;39.11;101400.53;4964984;28;19926;-82
2022/04/20 02:10:28;;;;;;;;;;;;;;;20.73;38.62;101404.38;4967355;28;19925;-84
2022/04/20 02:12:53;;;;;;;;;;;;;;;20.72;38.65;101398.06;4943168;29;20343;-81
2022/04/20 02:15:18;;;;;;;;;;;;;;;20.72;38.91;101398.06;4946341;29;19937;-81
2022/04/20 02:17:43;;;;;;;;;;;;;;;20.72;38.71;101403.56;4950080;29;19922;-81
2022/04/20 02:20:09;;;;;;;;;;;;;;;20.71;38.88;101401.09;4954273;29;20343;-80
2022/04/20 02:22:34;;;;;;;;;;;;;;;20.70;38.64;101414.00;4966449;28;19926;-81
2022/04/20 02:25:00;;;;;;;;;;;;;;;20.71;38.66;101403.84;4948803;29;19930;-81
2022/04/20 02:27:28;;;;;;;;;;;;;;;20.69;38.74;101401.41;4954309;29;19922;-81
2022/04/20 02:29:53;;;;;;;;;;;;;;;20.68;38.78;101398.94;4955512;29;19925;-81
2022/04/20 02:32:18;;;;;;;;;;;;;;;20.68;38.99;101397.00;4945733;28;19934;-81
2022/04/20 02:34:44;;;;;;;;;;;;;;;20.68;38.96;101396.19;4950947;29;19923;-81
2022/04/20 02:37:09;;;;;;;;;;;;;;;20.67;38.94;101402.81;4945075;29;19922;-80
2022/04/20 02:39:36;;;;;;;;;;;;;;;20.66;38.64;101396.53;4955810;28;20430;-81
2022/04/20 02:42:01;;;;;;;;;;;;;;;20.67;38.65;101400.06;4954180;29;20009;-81
2022/04/20 02:44:27;;;;;;;;;;;;;;;20.66;39.03;101401.16;4953447;28;20017;-81
2022/04/20 02:46:52;;;;;;;;;;;;;;;20.66;38.76;101403.91;4953800;28;20410;-81
2022/04/20 02:49:17;;;;;;;;;;;;;;;20.65;38.89;101397.59;4967093;28;19922;-80
2022/04/20 02:51:42;;;;;;;;;;;;;;;20.64;38.77;101398.72;4953513;28;19942;-81
2022/04/20 02:54:08;;;;;;;;;;;;;;;20.65;38.84;101405.03;4955050;29;19923;-80
2022/04/20 02:56:33;;;;;;;;;;;;;;;20.65;38.66;101405.84;4967505;28;19973;-80
2022/04/20 02:58:58;;;;;;;;;;;;;;;20.64;38.98;101406.97;4951140;29;22016;-80
2022/04/20 03:01:24;;;;;;;;;;;;;;;20.63;38.89;101405.31;4954121;29;19923;-81
2022/04/20 03:03:49;;;;;;;;;;;;;;;20.62;38.72;101409.19;4969733;28;20426;-81
2022/04/20 03:06:15;;;;;;;;;;;;;;;20.63;38.77;101412.75;4950778;29;19923;-81
2022/04/20 03:08:41;;;;;;;;;;;;;;;20.64;38.64;101411.66;4938221;29;19930;-81
2022/04/20 03:11:06;;;;;;;;;;;;;;;20.62;38.74;101400.94;4934435;29;20379;-81
2022/04/20 03:13:32;;;;;;;;;;;;;;;20.61;38.49;101404.78;4932612;29;19962;-81
2022/04/20 03:15:57;;;;;;;;;;;;;;;20.62;38.86;101411.13;4953065;29;19926;-81
2022/04/20 03:18:23;;;;;;;;;;;;;;;20.61;38.67;101414.97;4953291;28;19922;-81
2022/04/20 03:20:49;;;;;;;;;;;;;;;20.61;38.78;101415.78;4952388;28;19934;-81
2022/04/20 03:23:14;;;;;;;;;;;;;;;20.61;38.62;101417.69;4953028;29;19926;-81
2022/04/20 03:25:41;;;;;;;;;;;;;;;20.60;38.92;101411.41;4952790;29;19981;-81
2022/04/20 03:28:06;;;;;;;;;;;;;;;20.59;38.83;101415.28;4952634;28;19923;-81
2022/04/20 03:30:32;;;;;;;;;;;;;;;20.58;38.50;101419.09;4968533;28;20322;-82
2022/04/20 03:32:57;;;;;;;;;;;;;;;20.59;38.52;101425.41;4949952;29;19922;-82
2022/04/20 03:35:23;;;;;;;;;;;;;;;20.59;38.50;101415.28;4929938;29;19931;-81
2022/04/20 03:37:48;;;;;;;;;;;;;;;20.58;38.60;101430.09;4958397;28;20303;-82
2022/04/20 03:40:13;;;;;;;;;;;;;;;20.58;38.57;101427.34;4965832;28;19930;-81
2022/04/20 03:42:38;;;;;;;;;;;;;;;20.57;38.53;101428.47;4968807;28;19926;-81
2022/04/20 03:45:04;;;;;;;;;;;;;;;20.57;38.86;101433.94;4963162;28;19923;-81
2022/04/20 03:47:29;;;;;;;;;;;;;;;20.56;38.63;101432.31;4968738;28;19932;-82
2022/04/20 03:49:54;;;;;;;;;;;;;;;20.56;38.75;101434.25;4953800;29;19961;-81
2022/04/20 03:52:20;;;;;;;;;;;;;;;20.56;38.60;101437.78;4952103;29;19923;-82
2022/04/20 03:54:45;;;;;;;;;;;;;;;20.55;38.52;101441.66;4953874;28;19918;-82
2022/04/20 03:57:10;;;;;;;;;;;;;;;20.55;38.73;101433.44;4953621;29;19923;-81
2022/04/20 03:59:37;;;;;;;;;;;;;;;20.54;38.74;101440.00;4951618;28;20388;-82
2022/04/20 04:02:03;;;;;;;;;;;;;;;20.55;38.55;101444.41;4950434;29;19978;-82
2022/04/20 04:04:28;;;;;;;;;;;;;;;20.54;38.67;101445.50;4924903;29;20398;-82
2022/04/20 04:06:53;;;;;;;;;;;;;;;20.55;38.70;101449.09;4955346;28;19954;-81
2022/04/20 04:09:19;;;;;;;;;;;;;;;20.53;38.40;101452.06;4944726;29;19927;-81
2022/04/20 04:11:44;;;;;;;;;;;;;;;20.53;38.51;101450.13;4953519;29;19969;-81
2022/04/20 04:14:09;;;;;;;;;;;;;;;20.53;38.83;101457.56;4954201;29;20012;-81
2022/04/20 04:16:36;;;;;;;;;;;;;;;20.52;38.55;101456.75;4968463;28;19958;-81
2022/04/20 04:19:03;;;;;;;;;;;;;;;20.51;38.60;101454.28;4952725;28;20290;-80
2022/04/20 04:21:28;;;;;;;;;;;;;;;20.52;38.57;101456.75;4952415;28;19946;-81
2022/04/20 04:23:53;;;;;;;;;;;;;;;20.51;38.44;101457.03;4952315;28;20375;-81
2022/04/20 04:26:19;;;;;;;;;;;;;;;20.50;38.64;101455.41;4949151;29;20291;-81
2022/04/20 04:28:44;;;;;;;;;;;;;;;20.50;38.66;101455.41;4952578;28;20234;-81
2022/04/20 04:31:09;;;;;;;;;;;;;;;20.50;38.45;101458.16;4949202;29;20022;-81
2022/04/20 04:33:35;;;;;;;;;;;;;;;20.50;38.55;101460.91;4930170;29;19923;-81
2022/04/20 04:36:03;;;;;;;;;;;;;;;20.49;38.40;101462.84;4961552;28;19930;-81
2022/04/20 04:38:28;;;;;;;;;;;;;;;20.50;38.59;101469.13;4968079;28;20309;-81
2022/04/20 04:40:54;;;;;;;;;;;;;;;20.48;38.63;101468.59;4949372;29;20367;-81
2022/04/20 04:43:19;;;;;;;;;;;;;;;20.47;38.49;101466.97;4943690;29;19922;-80
2022/04/20 04:48:41;;;;;;;;;;;;;;;20.46;38.41;101463.44;4953866;29;20287;-80
2022/04/20 04:51:07;;;;;;;;;;;;;;;20.46;38.40;101476.31;4968858;28;20351;-81
2022/04/20 04:53:32;;;;;;;;;;;;;;;20.46;38.62;101470.81;4953061;29;20383;-82
2022/04/20 04:55:58;;;;;;;;;;;;;;;20.45;38.65;101480.16;4952528;28;19969;-81
2022/04/20 04:58:23;;;;;;;;;;;;;;;20.45;38.47;101482.91;4954678;29;20071;-81
2022/04/20 05:00:48;;;;;;;;;;;;;;;20.45;38.59;101485.66;4949259;29;20291;-81
2022/04/20 05:03:17;;;;;;;;;;;;;;;20.44;38.57;101481.28;4938509;28;19990;-81
2022/04/20 05:05:45;;;;;;;;;;;;;;;20.43;38.74;101479.63;4952915;28;19919;-81
2022/04/20 05:08:10;;;;;;;;;;;;;;;20.42;38.48;101483.50;4946426;28;20355;-81
2022/04/20 05:10:36;;;;;;;;;;;;;;;20.42;38.44;101489.00;4959252;28;19974;-82
2022/04/20 05:13:02;;;;;;;;;;;;;;;20.41;38.43;101477.19;4972266;28;19925;-81
2022/04/20 05:15:27;;;;;;;;;;;;;;;20.42;38.62;101476.06;4955986;28;20029;-81
2022/04/20 05:17:52;;;;;;;;;;;;;;;20.42;38.30;101483.50;4957334;29;19926;-82
2022/04/20 05:20:21;;;;;;;;;;;;;;;20.41;38.54;101481.84;4969110;28;19923;-81
2022/04/20 05:22:46;;;;;;;;;;;;;;;20.40;38.46;101489.25;4954781;29;20005;-81
2022/04/20 05:25:12;;;;;;;;;;;;;;;20.40;38.52;101491.19;4957471;28;20010;-81
2022/04/20 05:27:37;;;;;;;;;;;;;;;20.40;38.50;101485.72;4971169;28;20376;-82
2022/04/20 05:30:03;;;;;;;;;;;;;;;20.39;38.72;101481.34;4956068;29;20375;-82
2022/04/20 05:32:29;;;;;;;;;;;;;;;20.38;38.40;101488.72;4968811;28;19935;-84
2022/04/20 05:34:54;;;;;;;;;;;;;;;20.39;38.37;101489.56;4947475;29;19919;-87
2022/04/20 05:42:47;;;;;;;;;;;;;;;20.42;38.55;101495.28;4942112;29;19981;-81
2022/04/20 05:45:13;;;;;;;;;;;;;;;20.44;38.76;101505.97;4970630;28;20017;-82
2022/04/20 05:47:39;;;;;;;;;;;;;;;20.43;38.80;101507.06;4954679;29;20302;-81
2022/04/20 05:50:05;;;;;;;;;;;;;;;20.44;38.62;101508.72;4955781;28;19922;-82
2022/04/20 05:52:30;;;;;;;;;;;;;;;20.42;38.71;101509.00;4951546;28;20367;-82
2022/04/20 05:54:57;;;;;;;;;;;;;;;20.42;38.87;101500.78;4956092;28;19954;-82
2022/04/20 05:57:22;;;;;;;;;;;;;;;20.42;38.90;101508.19;4951882;29;20264;-82
2022/04/20 05:59:47;;;;;;;;;;;;;;;20.43;38.84;101507.06;4949283;29;19930;-82
2022/04/20 06:02:13;;;;;;;;;;;;;;;20.42;38.90;101508.19;4952084;29;20367;-82
2022/04/20 06:04:38;;;;;;;;;;;;;;;20.42;38.76;101505.44;4948521;29;20286;-82
2022/04/20 06:07:03;;;;;;;;;;;;;;;20.41;38.76;101501.91;4940814;29;19945;-82
2022/04/20 06:09:29;;;;;;;;;;;;;;;20.41;38.71;101503.81;4948750;29;19923;-82
2022/04/20 06:11:54;;;;;;;;;;;;;;;20.40;39.05;101505.72;4951189;29;19923;-81
2022/04/20 06:14:20;;;;;;;;;;;;;;;20.41;38.75;101517.53;4947827;29;19945;-82
2022/04/20 06:16:46;;;;;;;;;;;;;;;20.40;38.77;101516.72;4951734;28;19923;-81
2022/04/20 06:19:11;;;;;;;;;;;;;;;20.40;38.78;101510.41;4971287;28;19923;-80
2022/04/20 06:21:36;;;;;;;;;;;;;;;20.41;38.78;101517.53;4967440;28;20010;-83
2022/04/20 06:24:01;;;;;;;;;;;;;;;20.41;38.77;101521.09;4951847;29;19926;-81
2022/04/20 06:26:26;;;;;;;;;;;;;;;20.41;38.83;101523.00;4943582;28;19927;-81
2022/04/20 06:28:52;;;;;;;;;;;;;;;20.42;38.77;101525.47;4954095;29;20367;-81
2022/04/20 06:31:17;;;;;;;;;;;;;;;20.41;38.95;101523.84;4953987;29;19986;-81
2022/04/20 06:33:42;;;;;;;;;;;;;;;20.42;38.70;101530.16;4951134;29;19963;-81
2022/04/20 06:36:07;;;;;;;;;;;;;;;20.41;38.77;101523.84;4945910;29;19957;-81
2022/04/20 06:38:33;;;;;;;;;;;;;;;20.42;38.92;101525.47;4970602;28;19926;-80
2022/04/20 06:40:58;;;;;;;;;;;;;;;20.41;39.02;101521.09;4970348;28;19929;-77
2022/04/20 06:43:24;;;;;;;;;;;;;;;20.42;38.87;101528.22;4970330;28;20718;-80
2022/04/20 06:45:49;;;;;;;;;;;;;;;20.43;39.12;101526.28;4952575;28;19926;-79
2022/04/20 06:48:15;;;;;;;;;;;;;;;20.43;38.83;101521.59;4955636;28;20371;-82
2022/04/20 06:50:40;;;;;;;;;;;;;;;20.44;39.20;101523.25;4961001;28;19973;-83
2022/04/20 06:58:38;;;;;;;;;;;;;;;20.49;39.07;101519.66;4948842;28;19941;-79
2022/04/20 07:01:04;;;;;;;;;;;;;;;20.50;39.00;101521.28;4945645;28;20090;-82
2022/04/20 07:03:31;;;;;;;;;;;;;;;20.52;39.02;101519.88;4952399;28;19923;-80
2022/04/20 07:05:56;;;;;;;;;;;;;;;20.53;39.18;101523.44;4974334;28;19922;-80
2022/04/20 07:08:22;;;;;;;;;;;;;;;20.55;39.20;101518.50;4952683;28;19919;-79
2022/04/20 07:10:47;;;;;;;;;;;;;;;20.57;38.97;101526.47;4959530;28;19973;-79
2022/04/20 07:13:13;;;;;;;;;;;;;;;20.58;39.08;101514.38;4941737;28;20299;-79
2022/04/20 07:15:38;;;;;;;;;;;;;;;20.59;39.02;101519.56;4959519;28;20065;-80
2022/04/20 07:18:05;;;;;;;;;;;;;;;20.60;39.25;101512.97;4957822;28;20386;-81
2022/04/20 07:20:30;;;;;;;;;;;;;;;20.60;39.23;101521.19;4950850;28;19922;-80
2022/04/20 07:22:56;;;;;;;;;;;;;;;20.61;39.29;101522.81;4951040;28;20690;-80
2022/04/20 07:25:21;;;;;;;;;;;;;;;20.61;39.26;101519.25;4958018;28;20434;-80
2022/04/20 07:27:48;;;;;;;;;;;;;;;20.63;39.15;101522.53;4952451;28;20067;-80
2022/04/20 07:30:13;;;;;;;;;;;;;;;20.64;38.73;101526.94;4951785;28;19958;-81
2022/04/20 07:32:39;;;;;;;;;;;;;;;20.63;39.13;101523.34;4947972;28;19957;-80
2022/04/20 07:35:04;;;;;;;;;;;;;;;20.65;39.03;101531.31;4946511;28;20067;-81
2022/04/20 07:37:31;;;;;;;;;;;;;;;20.64;39.03;101530.50;4952099;28;19922;-81
2022/04/20 07:39:56;;;;;;;;;;;;;;;20.65;39.04;101525.81;4947407;28;19958;-80
2022/04/20 07:42:21;;;;;;;;;;;;;;;20.65;38.69;101529.38;4952566;28;19974;-80
2022/04/20 07:44:47;;;;;;;;;;;;;;;20.65;38.93;101534.88;4948892;28;19927;-81
2022/04/20 07:47:12;;;;;;;;;;;;;;;20.66;38.65;101533.78;4946263;28;19922;-81
2022/04/20 07:52:21;;;;;;;;;;;;;;;20.67;38.82;101535.41;4951349;28;20117;-80
2022/04/20 07:54:46;;;;;;;;;;;;;;;20.67;38.76;101548.31;4946945;28;20013;-81
2022/04/20 07:57:14;;;;;;;;;;;;;;;20.67;38.98;101535.41;4949140;28;19922;-80
2022/04/20 07:59:39;;;;;;;;;;;;;;;20.68;38.63;101542.50;4951343;28;19919;-81
2022/04/20 08:02:05;;;;;;;;;;;;;;;20.68;38.58;101537.03;4949955;28;20281;-82
2022/04/20 08:04:30;;;;;;;;;;;;;;;20.69;38.56;101544.16;4948653;28;19926;-80
2022/04/20 08:06:55;;;;;;;;;;;;;;;20.69;38.68;101541.41;4958200;28;20342;-82
2022/04/20 08:09:20;;;;;;;;;;;;;;;20.70;38.70;101543.03;4949947;28;20383;-82
2022/04/20 08:11:46;;;;;;;;;;;;;;;20.70;38.68;101537.56;4948398;28;19922;-82
2022/04/20 08:14:11;;;;;;;;;;;;;;;20.72;38.72;101538.09;4970988;28;20018;-82
2022/04/20 08:16:37;;;;;;;;;;;;;;;20.73;38.68;101545.19;4965971;28;20396;-82
2022/04/20 08:19:02;;;;;;;;;;;;;;;20.74;38.88;101540.56;4950478;28;19946;-82
2022/04/20 08:21:27;;;;;;;;;;;;;;;20.74;38.85;101537.81;4951260;28;20308;-81
2022/04/20 08:23:53;;;;;;;;;;;;;;;20.75;38.85;101533.94;4965814;28;19985;-80
2022/04/20 08:26:18;;;;;;;;;;;;;;;20.76;38.90;101541.06;4946936;28;19927;-81
2022/04/20 08:28:44;;;;;;;;;;;;;;;20.77;38.82;101542.69;4950522;28;20013;-82
2022/04/20 08:31:09;;;;;;;;;;;;;;;20.78;38.92;101535.28;4952890;28;20012;-81
2022/04/20 08:33:34;;;;;;;;;;;;;;;20.80;38.94;101538.56;4950586;28;19970;-81
2022/04/20 08:36:00;;;;;;;;;;;;;;;20.79;38.81;101535.00;4950765;28;19922;-82
2022/04/20 08:38:25;;;;;;;;;;;;;;;20.81;39.03;101543.72;4949955;28;20419;-82
2022/04/20 08:40:53;;;;;;;;;;;;;;;20.82;38.96;101539.91;4949843;28;19945;-81
2022/04/20 08:43:19;;;;;;;;;;;;;;;20.83;39.15;101535.22;4950980;28;19999;-82
2022/04/20 08:45:46;;;;;;;;;;;;;;;20.85;39.06;101536.56;4951537;28;19941;-83
2022/04/20 08:48:11;;;;;;;;;;;;;;;20.86;39.02;101534.63;4954958;28;19926;-82
2022/04/20 08:50:36;;;;;;;;;;;;;;;20.87;38.66;101544.53;4954808;28;19933;-81
2022/04/20 08:53:02;;;;;;;;;;;;;;;20.88;38.93;101540.66;4954728;28;19926;-82
2022/04/20 08:55:28;;;;;;;;;;;;;;;20.88;39.07;101541.47;4968664;28;19919;-80
2022/04/20 08:57:54;;;;;;;;;;;;;;;20.90;39.19;101538.44;4960439;28;19926;-81
2022/04/20 09:00:24;;;;;;;;;;;;;;;20.91;39.28;101540.06;4955092;28;19926;-80
2022/04/20 09:02:52;;;;;;;;;;;;;;;20.93;39.23;101546.91;4956176;28;19941;-82
2022/04/20 09:05:18;;;;;;;;;;;;;;;20.92;39.11;101545.28;4951955;28;20338;-82
2022/04/20 09:07:44;;;;;;;;;;;;;;;20.94;39.00;101533.97;4969464;28;20391;-83
2022/04/20 09:10:09;;;;;;;;;;;;;;;20.95;39.06;101532.88;4952347;28;19930;-81
2022/04/20 09:12:39;;;;;;;;;;;;;;;20.96;39.06;101531.75;4967756;28;20278;-81
2022/04/20 09:15:05;;;;;;;;;;;;;;;20.98;39.25;101528.72;4964117;28;19918;-83
2022/04/20 09:17:32;;;;;;;;;;;;;;;20.98;39.31;101531.47;4954721;28;20299;-83
2022/04/20 09:19:58;;;;;;;;;;;;;;;20.99;39.28;101533.09;4952005;28;19941;-84
2022/04/20 09:22:23;;;;;;;;;;;;;;;21.00;39.24;101532.81;4954432;28;19922;-83
2022/04/20 09:24:57;;;;;;;;;;;;;;;21.01;39.39;101531.69;4948911;28;19918;-81
2022/04/20 09:27:22;;;;;;;;;;;;;;;21.03;39.25;101531.41;4954656;28;20287;-82
2022/04/20 09:29:51;;;;;;;;;;;;;;;21.03;39.05;101529.47;4950699;28;20399;-82
2022/04/20 09:32:29;;;;;;;;;;;;;;;21.03;39.12;101521.25;4967012;28;19918;-84
2022/04/20 09:34:58;;;;;;;;;;;;;;;21.05;39.46;101521.75;4951088;28;19945;-83
2022/04/20 09:37:23;;;;;;;;;;;;;;;21.06;39.39;101517.91;4952156;28;19928;-83
2022/04/20 09:39:52;;;;;;;;;;;;;;;21.07;39.15;101519.53;4953740;28;19922;-82
2022/04/20 09:42:18;;;;;;;;;;;;;;;21.08;39.35;101521.16;4954663;28;20395;-82
2022/04/20 09:44:57;;;;;;;;;;;;;;;21.09;39.20;101519.22;4961696;28;19923;-82
2022/04/20 09:50:18;;;;;;;;;;;;;;;21.11;39.32;101514.25;4955758;28;19974;-83
2022/04/20 09:52:44;;;;;;;;;;;;;;;21.11;39.13;101512.34;4956655;28;19923;-83
2022/04/20 09:55:12;;;;;;;;;;;;;;;21.12;39.32;101503.00;4959654;28;20286;-83
2022/04/20 09:57:37;;;;;;;;;;;;;;;21.14;39.19;101505.44;4954283;28;19922;-83
2022/04/20 10:00:03;;;;;;;;;;;;;;;21.14;39.48;101514.50;4952915;28;19919;-83
2022/04/20 10:02:30;;;;;;;;;;;;;;;21.15;39.14;101507.09;4965782;28;20005;-83
2022/04/20 10:04:56;;;;;;;;;;;;;;;21.16;39.46;101503.22;4949848;28;19926;-84
2022/04/20 10:07:21;;;;;;;;;;;;;;;21.17;39.50;101502.13;4954056;28;19945;-83
2022/04/20 10:09:46;;;;;;;;;;;;;;;21.16;39.22;101497.72;4952501;28;19931;-84
2022/04/20 10:12:13;;;;;;;;;;;;;;;21.18;39.57;101503.72;4952951;28;20410;-83
2022/04/20 10:17:25;;;;;;;;;;;;;;;21.21;39.41;101488.59;4959881;28;19929;-82
2022/04/20 10:19:52;;;;;;;;;;;;;;;21.21;39.50;101491.34;4953098;28;19928;-85
2022/04/20 10:22:21;;;;;;;;;;;;;;;21.22;39.46;101491.06;4956309;28;19937;-83
2022/04/20 10:24:49;;;;;;;;;;;;;;;21.24;39.57;101490.75;4952909;28;19933;-82
2022/04/20 10:27:38;;;;;;;;;;;;;;;21.24;39.38;101497.03;4952370;28;20306;-81
2022/04/20 10:30:07;;;;;;;;;;;;;;;21.26;39.59;101497.56;4953535;28;20342;-85
2022/04/20 10:33:05;;;;;;;;;;;;;;;21.26;39.49;101492.06;4952111;28;19969;-88
2022/04/20 10:35:32;;;;;;;;;;;;;;;21.27;39.55;101488.22;4927181;28;20013;-86
2022/04/20 10:38:08;;;;;;;;;;;;;;;21.28;39.65;101489.84;4947025;28;19965;-85
2022/04/20 10:40:33;;;;;;;;;;;;;;;21.29;39.45;101479.66;4948841;28;19945;-81
2022/04/20 10:43:19;;;;;;;;;;;;;;;21.30;39.44;101478.56;4967985;28;20367;-85
2022/04/20 10:46:01;;;;;;;;;;;;;;;21.31;39.25;101480.19;4952495;28;19930;-82
2022/04/20 10:48:26;;;;;;;;;;;;;;;21.31;39.49;101475.50;4953379;28;19926;-83
2022/04/20 10:51:11;;;;;;;;;;;;;;;21.32;39.62;101470.84;4948821;28;19926;-85
2022/04/20 10:53:36;;;;;;;;;;;;;;;21.33;39.27;101473.28;4967967;28;20087;-85
2022/04/20 10:56:02;;;;;;;;;;;;;;;21.33;39.46;101461.50;4951497;28;20484;-83
2022/04/20 10:58:27;;;;;;;;;;;;;;;21.34;39.31;101463.09;4953562;28;20344;-81
2022/04/20 11:01:13;;;;;;;;;;;;;;;21.34;39.43;101452.13;4952972;28;20391;-82
2022/04/20 11:03:57;;;;;;;;;;;;;;;21.36;39.48;101460.88;4951982;28;19918;-82
2022/04/20 11:06:25;;;;;;;;;;;;;;;21.38;39.33;101439.44;4965498;28;20286;-83
2022/04/20 11:08:51;;;;;;;;;;;;;;;21.38;39.31;101450.41;4957431;28;20283;-81
2022/04/20 11:19:52;;;;;;;;;;;;;;;21.36;38.82;101441.66;4957982;28;19926;-82
2022/04/20 11:22:18;;;;;;;;;;;;;;;21.36;38.67;101434.22;4957170;28;19925;-85
2022/04/20 11:24:43;;;;;;;;;;;;;;;21.35;38.52;101435.34;4968859;28;19922;-82
2022/04/20 11:27:10;;;;;;;;;;;;;;;21.35;38.24;101431.78;4966026;28;20049;-86
2022/04/20 11:29:36;;;;;;;;;;;;;;;21.35;38.61;101431.78;4958663;28;19918;-84
2022/04/20 11:32:02;;;;;;;;;;;;;;;21.35;38.26;101434.53;4955497;28;19926;-82
2022/04/20 11:34:31;;;;;;;;;;;;;;;21.34;38.49;101428.22;4953091;28;19919;-82
2022/04/20 11:37:00;;;;;;;;;;;;;;;21.33;38.50;101429.31;4967909;28;19919;-85
2022/04/20 11:39:26;;;;;;;;;;;;;;;21.33;38.33;101425.75;4953950;28;19918;-82
2022/04/20 11:41:52;;;;;;;;;;;;;;;21.33;38.14;101421.06;4953472;28;19926;-81
2022/04/20 11:44:39;;;;;;;;;;;;;;;21.32;38.06;101416.72;4950981;28;19922;-82
2022/04/20 11:47:08;;;;;;;;;;;;;;;21.32;38.00;101410.41;4956028;28;19926;-82
2022/04/20 11:49:36;;;;;;;;;;;;;;;21.32;38.22;101405.72;4961773;28;19919;-80
2022/04/20 11:52:06;;;;;;;;;;;;;;;21.32;37.84;101410.41;4964178;28;19922;-81
2022/04/20 11:54:32;;;;;;;;;;;;;;;21.32;37.76;101415.91;4956589;28;19930;-81
2022/04/20 11:56:58;;;;;;;;;;;;;;;21.31;37.68;101412.31;4962782;28;19923;-85
2022/04/20 11:59:27;;;;;;;;;;;;;;;21.31;37.78;101403.25;4956623;28;20385;-84
2022/04/20 12:01:53;;;;;;;;;;;;;;;21.31;37.94;101398.56;4946704;28;19919;-80
2022/04/20 12:04:19;;;;;;;;;;;;;;;21.32;37.62;101393.91;4958568;28;20058;-82
2022/04/20 12:06:49;;;;;;;;;;;;;;;21.32;37.83;101391.16;4951608;28;19922;-82
2022/04/20 12:09:14;;;;;;;;;;;;;;;21.32;37.68;101385.66;4950361;28;20013;-84
2022/04/20 12:11:41;;;;;;;;;;;;;;;21.31;37.56;101387.56;4966821;28;20383;-83
2022/04/20 12:14:06;;;;;;;;;;;;;;;21.31;37.37;101390.31;4952384;28;19918;-83
2022/04/20 12:16:34;;;;;;;;;;;;;;;21.32;37.44;101394.72;4951645;28;20331;-82
2022/04/20 12:19:00;;;;;;;;;;;;;;;21.32;37.50;101388.41;4950993;28;19919;-82
2022/04/20 12:21:45;;;;;;;;;;;;;;;21.32;37.36;101391.16;4950381;28;19922;-82
2022/04/20 12:24:17;;;;;;;;;;;;;;;21.31;37.14;101376.59;4949273;28;19919;-81
2022/04/20 12:26:43;;;;;;;;;;;;;;;21.32;37.17;101371.94;4950048;28;19919;-81
2022/04/20 12:29:09;;;;;;;;;;;;;;;21.32;37.24;101378.25;4958308;28;19926;-80
2022/04/20 12:31:37;;;;;;;;;;;;;;;21.32;37.28;101380.19;4955135;28;19929;-80
2022/04/20 12:34:04;;;;;;;;;;;;;;;21.32;37.26;101378.25;4960383;28;19925;-85
2022/04/20 12:36:32;;;;;;;;;;;;;;;21.33;37.33;101376.31;4952284;28;19925;-82
2022/04/20 12:38:57;;;;;;;;;;;;;;;21.34;37.09;101375.19;4956562;28;19930;-82
2022/04/20 12:41:38;;;;;;;;;;;;;;;21.34;37.38;101367.78;4949750;28;19922;-82
2022/04/20 12:44:21;;;;;;;;;;;;;;;21.34;37.28;101355.94;4949685;28;19919;-82
2022/04/20 12:46:47;;;;;;;;;;;;;;;21.34;37.35;101354.03;4950957;28;20283;-81
2022/04/20 12:49:21;;;;;;;;;;;;;;;21.35;37.21;101343.84;4950374;28;19922;-83
2022/04/20 12:51:48;;;;;;;;;;;;;;;21.35;37.28;101354.84;4945623;28;19919;-82
2022/04/20 12:54:22;;;;;;;;;;;;;;;21.35;36.95;101352.91;4946839;28;19993;-81
2022/04/20 13:02:15;;;;;;;;;;;;;;;21.37;36.90;101341.63;4969268;28;19929;-82
2022/04/20 13:04:50;;;;;;;;;;;;;;;21.37;37.11;101338.88;4947395;28;19926;-84
2022/04/20 13:07:15;;;;;;;;;;;;;;;21.38;36.91;101337.75;4949503;28;19926;-83
2022/04/20 13:09:40;;;;;;;;;;;;;;;21.38;37.04;101329.50;4950813;28;19923;-83
2022/04/20 13:12:06;;;;;;;;;;;;;;;21.37;36.96;101320.44;4952542;28;19977;-82